createdAt,value
2023-11-25T00:01:01.437Z,-0.32
2023-11-25T00:03:39.356Z,-0.31
2023-11-25T00:06:08.478Z,-0.32
2023-11-25T00:08:36.363Z,-0.32
2023-11-25T00:11:12.131Z,-0.33
2023-11-25T00:13:46.405Z,-0.32
2023-11-25T00:16:14.510Z,-0.32
2023-11-25T00:18:42.657Z,-0.32
2023-11-25T00:21:10.867Z,-0.32
2023-11-25T00:23:39.091Z,-0.33
2023-11-25T00:26:06.986Z,-0.34
2023-11-25T00:28:34.968Z,-0.35
2023-11-25T00:31:03.290Z,-0.35
2023-11-25T00:33:31.285Z,-0.34
2023-11-25T00:35:59.809Z,-0.36
2023-11-25T00:38:27.847Z,-0.36
2023-11-25T00:40:55.720Z,-0.36
2023-11-25T00:43:23.955Z,-0.36
2023-11-25T00:45:52.093Z,-0.35
2023-11-25T00:48:20.144Z,-0.35
2023-11-25T00:51:26.090Z,-0.34
2023-11-25T00:53:57.664Z,-0.35
2023-11-25T00:56:25.569Z,-0.35
2023-11-25T00:58:53.500Z,-0.34
2023-11-25T01:01:21.645Z,-0.34
2023-11-25T01:03:49.825Z,-0.33
2023-11-25T01:06:17.896Z,-0.34
2023-11-25T01:08:46.111Z,-0.34
2023-11-25T01:11:17.139Z,-0.33
2023-11-25T01:14:04.033Z,-0.33
2023-11-25T01:16:51.340Z,-0.34
2023-11-25T01:19:19.324Z,-0.34
2023-11-25T01:21:47.239Z,-0.35
2023-11-25T01:24:16.121Z,-0.36
2023-11-25T01:26:44.185Z,-0.35
2023-11-25T01:29:12.177Z,-0.34
2023-11-25T01:31:40.127Z,-0.34
2023-11-25T01:34:08.214Z,-0.35
2023-11-25T01:36:36.248Z,-0.35
2023-11-25T01:39:04.310Z,-0.35
2023-11-25T01:41:32.558Z,-0.34
2023-11-25T01:44:00.767Z,-0.34
2023-11-25T01:46:39.231Z,-0.34
2023-11-25T01:49:09.482Z,-0.35
2023-11-25T01:51:42.607Z,-0.36
2023-11-25T01:54:13.927Z,-0.36
2023-11-25T01:56:43.288Z,-0.36
2023-11-25T01:59:15.861Z,-0.35
2023-11-25T02:01:46.075Z,-0.34
2023-11-25T02:04:14.133Z,-0.33
2023-11-25T02:06:42.115Z,-0.32
2023-11-25T02:09:10.019Z,-0.33
2023-11-25T02:11:57.830Z,-0.32
2023-11-25T02:14:26.703Z,-0.31
2023-11-25T02:16:55.803Z,-0.31
2023-11-25T02:19:24.722Z,-0.30
2023-11-25T02:21:53.430Z,-0.30
2023-11-25T02:24:21.532Z,-0.31
2023-11-25T02:26:58.514Z,-0.31
2023-11-25T02:29:28.005Z,-0.30
2023-11-25T02:31:56.414Z,-0.30
2023-11-25T02:34:24.791Z,-0.29
2023-11-25T02:36:53.543Z,-0.29
2023-11-25T02:39:40.568Z,-0.28
2023-11-25T02:42:08.639Z,-0.29
2023-11-25T02:44:36.788Z,-0.28
2023-11-25T02:47:05.122Z,-0.27
2023-11-25T02:49:33.165Z,-0.27
2023-11-25T02:52:02.297Z,-0.26
2023-11-25T02:54:30.394Z,-0.25
2023-11-25T02:56:58.350Z,-0.26
2023-11-25T02:59:26.268Z,-0.28
2023-11-25T03:02:06.418Z,-0.29
2023-11-25T03:04:34.548Z,-0.31
2023-11-25T03:07:02.526Z,-0.32
2023-11-25T03:09:30.504Z,-0.32
2023-11-25T03:11:58.342Z,-0.31
2023-11-25T03:14:26.337Z,-0.32
2023-11-25T03:16:56.202Z,-0.32
2023-11-25T03:19:24.158Z,-0.31
2023-11-25T03:21:53.724Z,-0.31
2023-11-25T03:24:21.921Z,-0.30
2023-11-25T03:26:49.802Z,-0.29
2023-11-25T03:29:17.677Z,-0.29
2023-11-25T03:31:46.161Z,-0.30
2023-11-25T03:34:14.334Z,-0.29
2023-11-25T03:36:42.522Z,-0.30
2023-11-25T03:39:10.527Z,-0.29
2023-11-25T03:41:38.452Z,-0.29
2023-11-25T03:44:07.268Z,-0.29
2023-11-25T03:46:35.344Z,-0.29
2023-11-25T03:49:03.793Z,-0.28
2023-11-25T03:51:31.725Z,-0.29
2023-11-25T03:53:59.582Z,-0.28
2023-11-25T03:56:27.630Z,-0.27
2023-11-25T03:58:55.550Z,-0.28
2023-11-25T04:01:23.615Z,-0.27
2023-11-25T04:03:51.747Z,-0.27
2023-11-25T04:06:19.791Z,-0.27
2023-11-25T04:08:47.700Z,-0.28
2023-11-25T04:11:15.598Z,-0.27
2023-11-25T04:13:43.641Z,-0.27
2023-11-25T04:16:11.639Z,-0.27
2023-11-25T04:18:39.544Z,-0.27
2023-11-25T04:21:07.738Z,-0.28
2023-11-25T04:23:35.842Z,-0.28
2023-11-25T04:26:03.768Z,-0.27
2023-11-25T04:28:31.688Z,-0.26
2023-11-25T04:31:00.072Z,-0.27
2023-11-25T04:33:28.006Z,-0.27
2023-11-25T04:35:55.857Z,-0.29
2023-11-25T04:38:23.875Z,-0.34
2023-11-25T04:40:51.837Z,-0.41
2023-11-25T04:43:19.761Z,-0.47
2023-11-25T04:45:47.683Z,-0.53
2023-11-25T04:48:15.546Z,-0.57
2023-11-25T04:50:45.681Z,-0.62
2023-11-25T04:53:14.418Z,-0.64
2023-11-25T04:55:42.284Z,-0.66
2023-11-25T04:58:10.232Z,-0.67
2023-11-25T05:00:38.321Z,-0.68
2023-11-25T05:03:06.454Z,-0.70
2023-11-25T05:05:34.537Z,-0.71
2023-11-25T05:08:02.581Z,-0.73
2023-11-25T05:10:30.889Z,-0.74
2023-11-25T05:12:58.864Z,-0.74
2023-11-25T05:15:27.069Z,-0.77
2023-11-25T05:17:55.092Z,-0.77
2023-11-25T05:20:23.049Z,-0.80
2023-11-25T05:22:51.013Z,-0.81
2023-11-25T05:25:18.998Z,-0.84
2023-11-25T05:27:46.980Z,-0.87
2023-11-25T05:30:15.542Z,-0.88
2023-11-25T05:32:44.294Z,-0.92
2023-11-25T05:35:15.011Z,-0.94
2023-11-25T05:37:44.336Z,-0.96
2023-11-25T05:40:12.804Z,-0.97
2023-11-25T05:42:41.130Z,-0.98
2023-11-25T05:45:09.606Z,-1.00
2023-11-25T05:47:37.578Z,-1.01
2023-11-25T05:50:06.576Z,-1.03
2023-11-25T05:52:34.597Z,-1.03
2023-11-25T05:55:02.642Z,-1.01
2023-11-25T05:57:30.583Z,-1.01
2023-11-25T05:59:58.506Z,-1.01
2023-11-25T06:02:26.480Z,-1.03
2023-11-25T06:04:54.539Z,-1.04
2023-11-25T06:07:22.912Z,-1.06
2023-11-25T06:09:50.837Z,-1.07
2023-11-25T06:12:19.385Z,-1.08
2023-11-25T06:14:47.659Z,-1.09
2023-11-25T06:17:15.793Z,-1.10
2023-11-25T06:19:43.840Z,-1.14
2023-11-25T06:22:11.938Z,-1.17
2023-11-25T06:24:39.906Z,-1.21
2023-11-25T06:27:08.050Z,-1.26
2023-11-25T06:29:36.027Z,-1.29
2023-11-25T06:32:04.125Z,-1.29
2023-11-25T06:34:32.254Z,-1.29
2023-11-25T06:37:00.105Z,-1.26
2023-11-25T06:39:28.055Z,-1.24
2023-11-25T06:41:56.038Z,-1.22
2023-11-25T06:44:23.970Z,-1.21
2023-11-25T06:46:52.165Z,-1.20
2023-11-25T06:49:20.184Z,-1.19
2023-11-25T06:51:48.153Z,-1.17
2023-11-25T06:54:16.434Z,-1.17
2023-11-25T06:56:46.738Z,-1.17
2023-11-25T06:59:14.643Z,-1.15
2023-11-25T07:01:42.574Z,-1.15
2023-11-25T07:04:10.536Z,-1.14
2023-11-25T07:06:38.532Z,-1.12
2023-11-25T07:09:06.422Z,-1.10
2023-11-25T07:11:34.386Z,-1.08
2023-11-25T07:14:02.730Z,-1.07
2023-11-25T07:16:30.630Z,-1.06
2023-11-25T07:18:58.631Z,-1.04
2023-11-25T07:21:26.557Z,-1.02
2023-11-25T07:23:54.508Z,-0.98
2023-11-25T07:26:22.395Z,-0.95
2023-11-25T07:28:50.487Z,-0.91
2023-11-25T07:31:18.450Z,-0.88
2023-11-25T07:33:50.122Z,-0.86
2023-11-25T07:36:19.694Z,-0.82
2023-11-25T07:38:47.606Z,-0.76
2023-11-25T07:41:18.342Z,-0.71
2023-11-25T07:43:46.464Z,-0.67
2023-11-25T07:46:14.516Z,-0.60
2023-11-25T07:48:42.449Z,-0.53
2023-11-25T07:51:11.026Z,-0.48
2023-11-25T07:53:38.969Z,-0.45
2023-11-25T07:56:07.286Z,-0.42
2023-11-25T07:58:35.562Z,-0.35
2023-11-25T08:01:03.502Z,-0.30
2023-11-25T08:03:31.449Z,-0.23
2023-11-25T08:06:00.089Z,-0.17
2023-11-25T08:08:28.152Z,-0.13
2023-11-25T08:10:56.077Z,-0.09
2023-11-25T08:13:24.039Z,-0.11
2023-11-25T08:15:52.488Z,-0.08
2023-11-25T08:18:20.942Z,0.05
2023-11-25T08:20:48.908Z,0.15
2023-11-25T08:23:18.571Z,0.18
2023-11-25T08:25:47.047Z,0.15
2023-11-25T08:28:14.982Z,0.25
2023-11-25T08:30:42.938Z,0.43
2023-11-25T08:33:11.127Z,0.56
2023-11-25T08:35:39.145Z,0.62
2023-11-25T08:38:07.318Z,0.64
2023-11-25T08:40:35.251Z,0.66
2023-11-25T08:43:03.883Z,0.67
2023-11-25T08:45:31.942Z,0.67
2023-11-25T08:48:01.240Z,0.72
2023-11-25T08:50:30.114Z,0.79
2023-11-25T08:53:00.620Z,0.82
2023-11-25T08:55:29.092Z,0.82
2023-11-25T08:57:59.683Z,0.84
2023-11-25T09:00:28.075Z,0.99
2023-11-25T09:02:56.364Z,1.03
2023-11-25T09:05:33.208Z,1.00
2023-11-25T09:08:13.806Z,0.94
2023-11-25T09:10:45.297Z,0.94
2023-11-25T09:13:26.689Z,0.91
2023-11-25T09:19:32.287Z,0.99
2023-11-25T09:22:00.527Z,1.01
2023-11-25T09:24:28.743Z,1.07
2023-11-25T09:26:57.486Z,1.16
2023-11-25T09:29:25.881Z,1.29
2023-11-25T09:31:54.110Z,1.38
2023-11-25T09:34:22.676Z,1.52
2023-11-25T09:36:52.576Z,1.74
2023-11-25T09:39:20.615Z,1.86
2023-11-25T09:41:48.832Z,1.99
2023-11-25T09:44:17.645Z,2.35
2023-11-25T09:46:48.989Z,2.58
2023-11-25T09:49:17.823Z,2.44
2023-11-25T09:51:46.826Z,2.16
2023-11-25T09:54:22.235Z,1.84
2023-11-25T09:56:50.896Z,1.64
2023-11-25T09:59:19.132Z,1.60
2023-11-25T10:01:47.560Z,1.57
2023-11-25T10:04:22.431Z,1.41
2023-11-25T10:06:53.745Z,1.18
2023-11-25T10:09:22.155Z,0.97
2023-11-25T10:11:50.371Z,0.85
2023-11-25T10:14:18.368Z,0.71
2023-11-25T10:16:46.471Z,0.68
2023-11-25T10:19:20.151Z,0.69
2023-11-25T10:21:50.242Z,0.76
2023-11-25T10:24:19.472Z,0.83
2023-11-25T10:26:50.858Z,0.89
2023-11-25T10:29:27.063Z,0.91
2023-11-25T10:35:43.051Z,1.05
2023-11-25T10:38:16.810Z,1.21
2023-11-25T10:41:04.114Z,1.43
2023-11-25T10:43:44.330Z,1.72
2023-11-25T10:46:12.678Z,3.01
2023-11-25T10:51:30.516Z,4.79
2023-11-25T10:54:00.581Z,5.93
2023-11-25T10:56:31.082Z,6.64
2023-11-25T10:59:01.216Z,7.17
2023-11-25T11:01:33.229Z,6.33
2023-11-25T11:04:14.681Z,5.49
2023-11-25T11:06:55.930Z,4.64
2023-11-25T11:09:26.819Z,4.14
2023-11-25T11:12:09.129Z,3.62
2023-11-25T11:14:48.578Z,3.07
2023-11-25T11:17:35.235Z,2.72
2023-11-25T11:20:11.190Z,2.50
2023-11-25T11:22:57.643Z,2.41
2023-11-25T11:29:25.799Z,2.18
2023-11-25T11:32:08.887Z,2.09
2023-11-25T11:34:37.651Z,1.97
2023-11-25T11:37:05.862Z,1.89
2023-11-25T11:39:52.449Z,1.77
2023-11-25T11:42:23.740Z,1.65
2023-11-25T11:44:59.761Z,1.57
2023-11-25T11:47:28.674Z,1.59
2023-11-25T11:50:01.090Z,1.60
2023-11-25T11:52:54.831Z,1.55
2023-11-25T11:55:40.514Z,1.50
2023-11-25T11:58:17.947Z,1.49
2023-11-25T12:01:08.518Z,1.50
2023-11-25T12:03:38.161Z,1.48
2023-11-25T12:06:07.461Z,1.52
2023-11-25T12:08:38.874Z,1.58
2023-11-25T12:11:07.670Z,1.65
2023-11-25T12:13:36.439Z,1.68
2023-11-25T12:16:04.938Z,1.65
2023-11-25T12:18:34.937Z,1.61
2023-11-25T12:21:04.247Z,1.57
2023-11-25T12:23:44.517Z,1.61
2023-11-25T12:26:23.558Z,1.66
2023-11-25T12:28:51.909Z,1.65
2023-11-25T12:31:20.210Z,1.67
2023-11-25T12:33:48.283Z,1.66
2023-11-25T12:36:18.952Z,1.55
2023-11-25T12:38:46.907Z,1.46
2023-11-25T12:41:15.128Z,1.40
2023-11-25T12:44:05.625Z,1.39
2023-11-25T12:46:33.807Z,1.38
2023-11-25T12:49:25.230Z,1.38
2023-11-25T12:51:53.934Z,1.36
2023-11-25T12:54:22.263Z,1.33
2023-11-25T12:56:54.896Z,1.30
2023-11-25T12:59:28.656Z,1.32
2023-11-25T13:02:17.265Z,1.37
2023-11-25T13:04:49.132Z,1.30
2023-11-25T13:07:33.654Z,1.20
2023-11-25T13:10:02.526Z,1.10
2023-11-25T13:12:31.505Z,1.00
2023-11-25T13:14:59.405Z,0.85
2023-11-25T13:17:27.474Z,0.71
2023-11-25T13:19:55.590Z,0.58
2023-11-25T13:22:25.762Z,0.50
2023-11-25T13:24:53.740Z,0.44
2023-11-25T13:27:21.737Z,0.40
2023-11-25T13:29:49.655Z,0.34
2023-11-25T13:32:17.915Z,0.30
2023-11-25T13:34:46.154Z,0.24
2023-11-25T13:37:14.155Z,0.20
2023-11-25T13:39:42.361Z,0.19
2023-11-25T13:42:10.263Z,0.17
2023-11-25T13:44:38.338Z,0.14
2023-11-25T13:47:06.339Z,0.13
2023-11-25T13:49:37.074Z,0.13
2023-11-25T13:52:05.981Z,0.11
2023-11-25T13:54:33.894Z,0.05
2023-11-25T13:57:01.896Z,-0.01
2023-11-25T13:59:29.947Z,-0.05
2023-11-25T14:01:58.043Z,-0.07
2023-11-25T14:04:26.309Z,-0.05
2023-11-25T14:06:54.434Z,-0.05
2023-11-25T14:09:22.332Z,-0.04
2023-11-25T14:11:50.510Z,-0.06
2023-11-25T14:14:18.529Z,-0.09
2023-11-25T14:16:50.451Z,-0.15
2023-11-25T14:19:18.785Z,-0.19
2023-11-25T14:21:47.134Z,-0.23
2023-11-25T14:24:15.052Z,-0.28
2023-11-25T14:26:43.147Z,-0.34
2023-11-25T14:29:11.155Z,-0.39
2023-11-25T14:31:39.230Z,-0.44
2023-11-25T14:34:07.238Z,-0.47
2023-11-25T14:36:35.243Z,-0.52
2023-11-25T14:39:03.354Z,-0.57
2023-11-25T14:41:31.384Z,-0.62
2023-11-25T14:43:59.740Z,-0.66
2023-11-25T14:46:27.809Z,-0.70
2023-11-25T14:48:58.511Z,-0.74
2023-11-25T14:51:26.414Z,-0.77
2023-11-25T14:53:56.733Z,-0.79
2023-11-25T14:56:24.818Z,-0.80
2023-11-25T14:58:52.969Z,-0.81
2023-11-25T15:01:21.099Z,-0.84
2023-11-25T15:03:49.145Z,-0.87
2023-11-25T15:06:17.500Z,-0.87
2023-11-25T15:08:45.415Z,-0.88
2023-11-25T15:11:13.444Z,-0.89
2023-11-25T15:13:41.573Z,-0.90
2023-11-25T15:16:09.485Z,-0.91
2023-11-25T15:18:37.606Z,-0.93
2023-11-25T15:21:05.771Z,-0.95
2023-11-25T15:23:33.712Z,-0.95
2023-11-25T15:26:02.533Z,-0.96
2023-11-25T15:28:30.901Z,-0.97
2023-11-25T15:30:59.019Z,-0.99
2023-11-25T15:33:27.058Z,-1.01
2023-11-25T15:36:32.325Z,-1.04
2023-11-25T15:39:00.310Z,-1.08
2023-11-25T15:41:28.370Z,-1.09
2023-11-25T15:43:56.510Z,-1.11
2023-11-25T15:46:24.644Z,-1.14
2023-11-25T15:48:57.611Z,-1.15
2023-11-25T15:51:25.631Z,-1.18
2023-11-25T15:53:53.572Z,-1.22
2023-11-25T15:56:21.949Z,-1.23
2023-11-25T15:58:50.596Z,-1.25
2023-11-25T16:01:18.515Z,-1.26
2023-11-25T16:03:46.517Z,-1.26
2023-11-25T16:06:14.537Z,-1.26
2023-11-25T16:08:42.767Z,-1.26
2023-11-25T16:11:11.175Z,-1.25
2023-11-25T16:13:39.272Z,-1.25
2023-11-25T16:16:07.558Z,-1.26
2023-11-25T16:18:36.010Z,-1.27
2023-11-25T16:21:04.270Z,-1.29
2023-11-25T16:23:33.647Z,-1.30
2023-11-25T16:26:03.088Z,-1.32
2023-11-25T16:28:40.094Z,-1.34
2023-11-25T16:31:11.201Z,-1.36
2023-11-25T16:33:39.567Z,-1.38
2023-11-25T16:36:07.874Z,-1.40
2023-11-25T16:38:37.365Z,-1.42
2023-11-25T16:41:05.586Z,-1.43
2023-11-25T16:43:36.159Z,-1.44
2023-11-25T16:46:05.564Z,-1.45
2023-11-25T16:48:43.685Z,-1.46
2023-11-25T16:51:19.650Z,-1.46
2023-11-25T16:53:48.022Z,-1.45
2023-11-25T16:56:18.345Z,-1.43
2023-11-25T16:58:49.112Z,-1.40
2023-11-25T17:01:17.239Z,-1.40
2023-11-25T17:03:45.326Z,-1.37
2023-11-25T17:06:16.485Z,-1.36
2023-11-25T17:08:44.581Z,-1.34
2023-11-25T17:11:12.736Z,-1.33
2023-11-25T17:13:40.802Z,-1.32
2023-11-25T17:16:09.182Z,-1.32
2023-11-25T17:18:37.509Z,-1.32
2023-11-25T17:21:05.959Z,-1.31
2023-11-25T17:23:34.004Z,-1.31
2023-11-25T17:26:01.960Z,-1.31
2023-11-25T17:28:30.015Z,-1.29
2023-11-25T17:31:06.948Z,-1.29
2023-11-25T17:33:34.883Z,-1.28
2023-11-25T17:36:02.915Z,-1.27
2023-11-25T17:38:30.970Z,-1.26
2023-11-25T17:40:59.030Z,-1.25
2023-11-25T17:43:27.223Z,-1.23
2023-11-25T17:45:55.420Z,-1.21
2023-11-25T17:48:23.457Z,-1.20
2023-11-25T17:50:51.430Z,-1.20
2023-11-25T17:53:19.516Z,-1.19
2023-11-25T17:55:48.966Z,-1.18
2023-11-25T17:58:17.063Z,-1.16
2023-11-25T18:00:45.282Z,-1.14
2023-11-25T18:03:13.694Z,-1.12
2023-11-25T18:05:43.230Z,-1.12
2023-11-25T18:08:26.964Z,-1.11
2023-11-25T18:10:55.614Z,-1.11
2023-11-25T18:13:28.995Z,-1.11
2023-11-25T18:15:58.527Z,-1.12
2023-11-25T18:18:27.439Z,-1.12
2023-11-25T18:20:55.688Z,-1.13
2023-11-25T18:23:30.049Z,-1.13
2023-11-25T18:26:01.587Z,-1.12
2023-11-25T18:28:30.730Z,-1.12
2023-11-25T18:30:58.760Z,-1.13
2023-11-25T18:33:27.213Z,-1.13
2023-11-25T18:35:55.255Z,-1.13
2023-11-25T18:38:24.665Z,-1.12
2023-11-25T18:40:52.865Z,-1.12
2023-11-25T18:43:21.020Z,-1.13
2023-11-25T18:45:49.059Z,-1.13
2023-11-25T18:48:17.255Z,-1.12
2023-11-25T18:51:05.142Z,-1.11
2023-11-25T18:53:34.593Z,-1.11
2023-11-25T18:56:03.207Z,-1.08
2023-11-25T18:58:31.641Z,-1.08
2023-11-25T19:01:00.417Z,-1.07
2023-11-25T19:03:30.205Z,-1.06
2023-11-25T19:05:59.568Z,-1.06
2023-11-25T19:08:28.084Z,-1.06
2023-11-25T19:10:56.171Z,-1.06
2023-11-25T19:13:25.201Z,-1.06
2023-11-25T19:15:53.478Z,-1.06
2023-11-25T19:18:22.233Z,-1.06
2023-11-25T19:20:50.669Z,-1.06
2023-11-25T19:23:18.790Z,-1.08
2023-11-25T19:25:46.827Z,-1.08
2023-11-25T19:28:15.517Z,-1.09
2023-11-25T19:30:43.536Z,-1.10
2023-11-25T19:33:11.756Z,-1.11
2023-11-25T19:35:39.925Z,-1.13
2023-11-25T19:38:09.159Z,-1.13
2023-11-25T19:40:37.373Z,-1.13
2023-11-25T19:43:08.902Z,-1.13
2023-11-25T19:45:38.246Z,-1.13
2023-11-25T19:48:06.520Z,-1.13
2023-11-25T19:50:34.631Z,-1.13
2023-11-25T19:53:03.341Z,-1.12
2023-11-25T19:55:31.564Z,-1.13
2023-11-25T19:58:00.437Z,-1.11
2023-11-25T20:00:29.307Z,-1.10
2023-11-25T20:02:57.634Z,-1.10
2023-11-25T20:05:25.978Z,-1.09
2023-11-25T20:07:54.352Z,-1.08
2023-11-25T20:10:22.712Z,-1.08
2023-11-25T20:12:50.802Z,-1.08
2023-11-25T20:15:19.492Z,-1.06
2023-11-25T20:17:47.802Z,-1.05
2023-11-25T20:20:16.375Z,-1.05
2023-11-25T20:22:47.589Z,-1.04
2023-11-25T20:25:15.922Z,-1.05
2023-11-25T20:27:44.840Z,-1.04
2023-11-25T20:30:14.844Z,-1.04
2023-11-25T20:32:44.973Z,-1.05
2023-11-25T20:35:18.625Z,-1.04
2023-11-25T20:37:47.318Z,-1.03
2023-11-25T20:40:15.746Z,-1.03
2023-11-25T20:42:43.945Z,-1.03
2023-11-25T20:45:13.465Z,-1.03
2023-11-25T20:47:41.786Z,-1.03
2023-11-25T20:50:11.624Z,-1.02
2023-11-25T20:52:39.637Z,-1.02
2023-11-25T20:55:09.368Z,-1.02
2023-11-25T20:57:37.569Z,-1.01
2023-11-25T21:00:07.743Z,-1.00
2023-11-25T21:02:37.383Z,-1.00
2023-11-25T21:05:06.070Z,-1.01
2023-11-25T21:07:34.747Z,-1.00
2023-11-25T21:10:02.903Z,-1.00
2023-11-25T21:12:31.185Z,-1.00
2023-11-25T21:14:59.248Z,-1.01
2023-11-25T21:17:27.315Z,-1.00
2023-11-25T21:19:55.295Z,-1.01
2023-11-25T21:22:23.547Z,-1.01
2023-11-25T21:24:56.984Z,-1.01
2023-11-25T21:27:25.310Z,-1.00
2023-11-25T21:29:53.218Z,-0.99
2023-11-25T21:32:21.245Z,-0.98
2023-11-25T21:34:49.419Z,-0.97
2023-11-25T21:37:17.524Z,-0.97
2023-11-25T21:39:45.542Z,-0.98
2023-11-25T21:42:13.762Z,-0.98
2023-11-25T21:44:43.432Z,-0.98
2023-11-25T21:50:15.690Z,-0.97
2023-11-25T21:52:48.012Z,-0.96
2023-11-25T21:55:17.477Z,-0.95
2023-11-25T21:57:49.624Z,-0.95
2023-11-25T22:00:25.516Z,-0.94
2023-11-25T22:02:53.693Z,-0.94
2023-11-25T22:05:29.125Z,-0.93
2023-11-25T22:07:57.799Z,-0.92
2023-11-25T22:10:29.726Z,-0.92
2023-11-25T22:12:58.402Z,-0.91
2023-11-25T22:15:26.716Z,-0.91
2023-11-25T22:17:55.965Z,-0.91
2023-11-25T22:20:24.472Z,-0.92
2023-11-25T22:22:52.584Z,-0.92
2023-11-25T22:25:20.627Z,-0.91
2023-11-25T22:27:48.734Z,-0.91
2023-11-25T22:30:16.823Z,-0.91
2023-11-25T22:32:44.889Z,-0.90
2023-11-25T22:35:13.138Z,-0.90
2023-11-25T22:37:41.113Z,-0.90
2023-11-25T22:40:10.888Z,-0.89
2023-11-25T22:42:38.811Z,-0.90
2023-11-25T22:45:07.203Z,-0.90
2023-11-25T22:47:36.726Z,-0.90
2023-11-25T22:50:06.398Z,-0.90
2023-11-25T22:52:34.312Z,-0.90
2023-11-25T22:55:02.859Z,-0.90
2023-11-25T22:57:30.834Z,-0.91
2023-11-25T22:59:58.824Z,-0.90
2023-11-25T23:02:29.774Z,-0.91
2023-11-25T23:04:58.129Z,-0.91
2023-11-25T23:07:26.295Z,-0.90
2023-11-25T23:09:54.206Z,-0.89
2023-11-25T23:12:26.406Z,-0.89
2023-11-25T23:14:54.400Z,-0.89
2023-11-25T23:17:22.333Z,-0.89
2023-11-25T23:19:50.368Z,-0.88
2023-11-25T23:22:18.312Z,-0.88
2023-11-25T23:24:46.230Z,-0.88
2023-11-25T23:27:14.253Z,-0.88
2023-11-25T23:29:42.370Z,-0.87
2023-11-25T23:32:10.450Z,-0.87
2023-11-25T23:34:38.457Z,-0.87
2023-11-25T23:37:06.529Z,-0.87
2023-11-25T23:39:34.472Z,-0.87
2023-11-25T23:42:02.567Z,-0.87
2023-11-25T23:44:30.562Z,-0.88
2023-11-25T23:46:58.549Z,-0.88
2023-11-25T23:49:26.514Z,-0.88
2023-11-25T23:51:54.431Z,-0.89
2023-11-25T23:54:22.417Z,-0.89
2023-11-25T23:56:50.269Z,-0.90
2023-11-25T23:59:20.785Z,-0.90
